sensor_id;sensor_type;location;lat;lon;timestamp;P1;durP1;ratioP1;P2;durP2;ratioP2
49800;SDS011;35698;50.232;30.540;2022-09-30T00:00:09;19.15;;;14.31;;
49800;SDS011;35698;50.232;30.540;2022-09-30T00:01:13;22.40;;;16.10;;
49800;SDS011;35698;50.232;30.540;2022-09-30T00:02:17;20.47;;;15.00;;
49800;SDS011;35698;50.232;30.540;2022-09-30T00:03:20;22.14;;;15.20;;
49800;SDS011;35698;50.232;30.540;2022-09-30T00:04:24;17.93;;;14.04;;
49800;SDS011;35698;50.232;30.540;2022-09-30T00:05:35;16.96;;;13.33;;
49800;SDS011;35698;50.232;30.540;2022-09-30T00:06:39;17.86;;;14.46;;
49800;SDS011;35698;50.232;30.540;2022-09-30T00:07:43;16.71;;;13.16;;
49800;SDS011;35698;50.232;30.540;2022-09-30T00:08:46;19.31;;;14.40;;
49800;SDS011;35698;50.232;30.540;2022-09-30T00:09:57;18.48;;;13.65;;
49800;SDS011;35698;50.232;30.540;2022-09-30T00:11:02;16.84;;;13.51;;
49800;SDS011;35698;50.232;30.540;2022-09-30T00:12:21;19.64;;;12.87;;
49800;SDS011;35698;50.232;30.540;2022-09-30T00:13:24;18.50;;;13.84;;
49800;SDS011;35698;50.232;30.540;2022-09-30T00:14:28;22.64;;;14.06;;
49800;SDS011;35698;50.232;30.540;2022-09-30T00:15:40;17.28;;;13.67;;
49800;SDS011;35698;50.232;30.540;2022-09-30T00:16:45;19.37;;;13.19;;
49800;SDS011;35698;50.232;30.540;2022-09-30T00:17:57;18.56;;;14.16;;
49800;SDS011;35698;50.232;30.540;2022-09-30T00:19:00;18.02;;;14.64;;
49800;SDS011;35698;50.232;30.540;2022-09-30T00:20:12;16.95;;;14.54;;
49800;SDS011;35698;50.232;30.540;2022-09-30T00:21:15;18.55;;;13.72;;
49800;SDS011;35698;50.232;30.540;2022-09-30T00:22:27;18.28;;;14.56;;
49800;SDS011;35698;50.232;30.540;2022-09-30T00:23:30;19.80;;;13.61;;
49800;SDS011;35698;50.232;30.540;2022-09-30T00:24:42;15.39;;;13.31;;
49800;SDS011;35698;50.232;30.540;2022-09-30T00:25:46;23.63;;;13.96;;
49800;SDS011;35698;50.232;30.540;2022-09-30T00:26:49;17.99;;;13.74;;
49800;SDS011;35698;50.232;30.540;2022-09-30T00:27:53;18.21;;;13.96;;
49800;SDS011;35698;50.232;30.540;2022-09-30T00:29:04;18.75;;;13.63;;
49800;SDS011;35698;50.232;30.540;2022-09-30T00:30:08;19.99;;;12.96;;
49800;SDS011;35698;50.232;30.540;2022-09-30T00:31:20;17.43;;;13.51;;
49800;SDS011;35698;50.232;30.540;2022-09-30T00:32:25;19.64;;;14.01;;
49800;SDS011;35698;50.232;30.540;2022-09-30T00:33:28;15.48;;;13.14;;
49800;SDS011;35698;50.232;30.540;2022-09-30T00:34:39;15.30;;;12.69;;
49800;SDS011;35698;50.232;30.540;2022-09-30T00:35:43;16.94;;;12.94;;
49800;SDS011;35698;50.232;30.540;2022-09-30T00:36:54;16.74;;;14.06;;
49800;SDS011;35698;50.232;30.540;2022-09-30T00:37:58;21.35;;;14.21;;
49800;SDS011;35698;50.232;30.540;2022-09-30T00:39:02;18.49;;;13.41;;
49800;SDS011;35698;50.232;30.540;2022-09-30T00:40:20;19.61;;;15.04;;
49800;SDS011;35698;50.232;30.540;2022-09-30T00:41:24;19.77;;;13.69;;
49800;SDS011;35698;50.232;30.540;2022-09-30T00:42:35;16.93;;;13.23;;
49800;SDS011;35698;50.232;30.540;2022-09-30T00:43:44;19.92;;;13.62;;
49800;SDS011;35698;50.232;30.540;2022-09-30T00:46:11;18.46;;;13.32;;
49800;SDS011;35698;50.232;30.540;2022-09-30T00:48:49;16.78;;;14.28;;
49800;SDS011;35698;50.232;30.540;2022-09-30T00:49:56;16.33;;;13.03;;
49800;SDS011;35698;50.232;30.540;2022-09-30T00:51:09;16.68;;;13.52;;
49800;SDS011;35698;50.232;30.540;2022-09-30T00:52:13;16.12;;;12.93;;
49800;SDS011;35698;50.232;30.540;2022-09-30T00:53:21;20.21;;;14.15;;
49800;SDS011;35698;50.232;30.540;2022-09-30T00:54:54;21.49;;;13.48;;
49800;SDS011;35698;50.232;30.540;2022-09-30T00:56:02;18.86;;;13.73;;
49800;SDS011;35698;50.232;30.540;2022-09-30T00:57:18;16.31;;;12.95;;
49800;SDS011;35698;50.232;30.540;2022-09-30T00:58:24;15.06;;;12.90;;
49800;SDS011;35698;50.232;30.540;2022-09-30T00:59:38;16.09;;;12.71;;
49800;SDS011;35698;50.232;30.540;2022-09-30T01:00:43;17.67;;;12.81;;
49800;SDS011;35698;50.232;30.540;2022-09-30T01:01:47;14.33;;;12.14;;
49800;SDS011;35698;50.232;30.540;2022-09-30T01:02:59;15.62;;;13.41;;
49800;SDS011;35698;50.232;30.540;2022-09-30T01:05:23;17.86;;;12.55;;
49800;SDS011;35698;50.232;30.540;2022-09-30T01:06:27;17.03;;;13.02;;
49800;SDS011;35698;50.232;30.540;2022-09-30T01:07:31;16.72;;;13.58;;
49800;SDS011;35698;50.232;30.540;2022-09-30T01:08:44;23.10;;;13.41;;
49800;SDS011;35698;50.232;30.540;2022-09-30T01:09:48;17.25;;;13.05;;
49800;SDS011;35698;50.232;30.540;2022-09-30T01:11:00;20.94;;;13.07;;
49800;SDS011;35698;50.232;30.540;2022-09-30T01:12:06;24.81;;;12.60;;
49800;SDS011;35698;50.232;30.540;2022-09-30T01:13:12;15.57;;;12.76;;
49800;SDS011;35698;50.232;30.540;2022-09-30T01:14:26;14.58;;;12.14;;
49800;SDS011;35698;50.232;30.540;2022-09-30T01:15:34;16.36;;;12.55;;
49800;SDS011;35698;50.232;30.540;2022-09-30T01:18:11;16.76;;;12.71;;
49800;SDS011;35698;50.232;30.540;2022-09-30T01:19:25;14.39;;;12.32;;
49800;SDS011;35698;50.232;30.540;2022-09-30T01:29:26;14.29;;;11.99;;
49800;SDS011;35698;50.232;30.540;2022-09-30T01:32:22;18.11;;;12.70;;
49800;SDS011;35698;50.232;30.540;2022-09-30T01:39:40;17.64;;;12.38;;
49800;SDS011;35698;50.232;30.540;2022-09-30T01:41:12;14.41;;;12.12;;
49800;SDS011;35698;50.232;30.540;2022-09-30T01:43:48;14.64;;;10.29;;
49800;SDS011;35698;50.232;30.540;2022-09-30T01:45:09;17.37;;;12.05;;
49800;SDS011;35698;50.232;30.540;2022-09-30T01:49:22;12.78;;;11.43;;
49800;SDS011;35698;50.232;30.540;2022-09-30T01:53:11;16.37;;;11.18;;
49800;SDS011;35698;50.232;30.540;2022-09-30T01:54:40;15.81;;;12.15;;
49800;SDS011;35698;50.232;30.540;2022-09-30T01:56:12;15.17;;;11.09;;
49800;SDS011;35698;50.232;30.540;2022-09-30T01:57:30;12.83;;;11.21;;
49800;SDS011;35698;50.232;30.540;2022-09-30T01:58:44;17.94;;;11.96;;
49800;SDS011;35698;50.232;30.540;2022-09-30T01:59:58;20.58;;;11.75;;
49800;SDS011;35698;50.232;30.540;2022-09-30T02:01:17;14.62;;;10.90;;
49800;SDS011;35698;50.232;30.540;2022-09-30T02:02:30;17.77;;;11.21;;
49800;SDS011;35698;50.232;30.540;2022-09-30T02:03:36;15.23;;;11.08;;
49800;SDS011;35698;50.232;30.540;2022-09-30T02:04:57;15.43;;;10.72;;
49800;SDS011;35698;50.232;30.540;2022-09-30T02:06:07;17.37;;;11.11;;
49800;SDS011;35698;50.232;30.540;2022-09-30T02:08:45;16.03;;;10.82;;
49800;SDS011;35698;50.232;30.540;2022-09-30T02:10:02;12.73;;;10.46;;
49800;SDS011;35698;50.232;30.540;2022-09-30T02:11:12;19.28;;;10.94;;
49800;SDS011;35698;50.232;30.540;2022-09-30T02:12:30;14.63;;;10.45;;
49800;SDS011;35698;50.232;30.540;2022-09-30T02:13:41;15.02;;;9.89;;
49800;SDS011;35698;50.232;30.540;2022-09-30T02:16:15;16.12;;;10.54;;
49800;SDS011;35698;50.232;30.540;2022-09-30T02:17:23;15.68;;;10.57;;
49800;SDS011;35698;50.232;30.540;2022-09-30T02:18:37;13.41;;;9.36;;
49800;SDS011;35698;50.232;30.540;2022-09-30T02:19:49;13.48;;;9.53;;
49800;SDS011;35698;50.232;30.540;2022-09-30T02:21:11;11.38;;;9.42;;
49800;SDS011;35698;50.232;30.540;2022-09-30T02:22:19;12.77;;;9.28;;
49800;SDS011;35698;50.232;30.540;2022-09-30T02:23:46;10.78;;;9.67;;
49800;SDS011;35698;50.232;30.540;2022-09-30T02:24:54;14.71;;;9.67;;
49800;SDS011;35698;50.232;30.540;2022-09-30T02:26:09;14.57;;;10.12;;
49800;SDS011;35698;50.232;30.540;2022-09-30T02:27:23;12.35;;;9.40;;
49800;SDS011;35698;50.232;30.540;2022-09-30T02:28:30;13.39;;;10.48;;
49800;SDS011;35698;50.232;30.540;2022-09-30T02:29:36;21.16;;;9.91;;
49800;SDS011;35698;50.232;30.540;2022-09-30T02:30:50;20.49;;;10.61;;
49800;SDS011;35698;50.232;30.540;2022-09-30T02:31:59;10.78;;;9.39;;
49800;SDS011;35698;50.232;30.540;2022-09-30T02:33:11;10.11;;;8.95;;
49800;SDS011;35698;50.232;30.540;2022-09-30T02:34:22;10.11;;;8.82;;
49800;SDS011;35698;50.232;30.540;2022-09-30T02:35:48;15.44;;;9.73;;
49800;SDS011;35698;50.232;30.540;2022-09-30T02:38:15;13.41;;;9.44;;
49800;SDS011;35698;50.232;30.540;2022-09-30T02:41:08;15.32;;;8.92;;
49800;SDS011;35698;50.232;30.540;2022-09-30T02:42:25;10.44;;;8.98;;
49800;SDS011;35698;50.232;30.540;2022-09-30T02:43:30;11.76;;;9.31;;
49800;SDS011;35698;50.232;30.540;2022-09-30T02:44:34;13.52;;;9.19;;
49800;SDS011;35698;50.232;30.540;2022-09-30T02:46:00;11.18;;;9.30;;
49800;SDS011;35698;50.232;30.540;2022-09-30T02:47:17;14.05;;;9.92;;
49800;SDS011;35698;50.232;30.540;2022-09-30T02:48:42;13.44;;;9.89;;
49800;SDS011;35698;50.232;30.540;2022-09-30T02:49:54;13.31;;;9.41;;
49800;SDS011;35698;50.232;30.540;2022-09-30T02:57:34;16.18;;;9.47;;
49800;SDS011;35698;50.232;30.540;2022-09-30T02:58:53;12.17;;;9.04;;
49800;SDS011;35698;50.232;30.540;2022-09-30T03:00:09;19.07;;;10.08;;
49800;SDS011;35698;50.232;30.540;2022-09-30T03:01:15;16.13;;;9.56;;
49800;SDS011;35698;50.232;30.540;2022-09-30T03:02:19;13.73;;;10.13;;
49800;SDS011;35698;50.232;30.540;2022-09-30T03:03:28;15.19;;;11.03;;
49800;SDS011;35698;50.232;30.540;2022-09-30T03:04:45;14.52;;;10.50;;
49800;SDS011;35698;50.232;30.540;2022-09-30T03:05:49;11.07;;;8.92;;
49800;SDS011;35698;50.232;30.540;2022-09-30T03:06:53;12.58;;;9.78;;
49800;SDS011;35698;50.232;30.540;2022-09-30T03:07:57;13.86;;;10.16;;
49800;SDS011;35698;50.232;30.540;2022-09-30T03:09:08;17.03;;;9.86;;
49800;SDS011;35698;50.232;30.540;2022-09-30T03:10:14;19.28;;;10.71;;
49800;SDS011;35698;50.232;30.540;2022-09-30T03:11:19;16.39;;;8.94;;
49800;SDS011;35698;50.232;30.540;2022-09-30T03:14:07;9.78;;;8.62;;
49800;SDS011;35698;50.232;30.540;2022-09-30T03:16:53;17.45;;;9.15;;
49800;SDS011;35698;50.232;30.540;2022-09-30T03:18:07;11.49;;;8.87;;
49800;SDS011;35698;50.232;30.540;2022-09-30T03:19:29;14.62;;;8.96;;
49800;SDS011;35698;50.232;30.540;2022-09-30T03:23:21;16.32;;;10.74;;
49800;SDS011;35698;50.232;30.540;2022-09-30T03:24:51;15.02;;;11.22;;
49800;SDS011;35698;50.232;30.540;2022-09-30T03:28:53;12.87;;;9.86;;
49800;SDS011;35698;50.232;30.540;2022-09-30T03:30:23;15.63;;;10.06;;
49800;SDS011;35698;50.232;30.540;2022-09-30T03:33:16;13.49;;;10.64;;
49800;SDS011;35698;50.232;30.540;2022-09-30T03:34:40;13.86;;;10.80;;
49800;SDS011;35698;50.232;30.540;2022-09-30T03:38:14;16.64;;;9.45;;
49800;SDS011;35698;50.232;30.540;2022-09-30T03:39:48;17.25;;;10.48;;
49800;SDS011;35698;50.232;30.540;2022-09-30T03:42:14;15.47;;;9.38;;
49800;SDS011;35698;50.232;30.540;2022-09-30T03:43:32;16.63;;;11.17;;
49800;SDS011;35698;50.232;30.540;2022-09-30T03:47:43;15.09;;;11.48;;
49800;SDS011;35698;50.232;30.540;2022-09-30T03:50:24;17.29;;;11.76;;
49800;SDS011;35698;50.232;30.540;2022-09-30T03:51:29;17.01;;;12.15;;
49800;SDS011;35698;50.232;30.540;2022-09-30T03:52:34;18.11;;;12.58;;
49800;SDS011;35698;50.232;30.540;2022-09-30T03:53:46;15.87;;;12.08;;
49800;SDS011;35698;50.232;30.540;2022-09-30T03:54:50;20.44;;;12.84;;
49800;SDS011;35698;50.232;30.540;2022-09-30T03:56:03;14.28;;;12.24;;
49800;SDS011;35698;50.232;30.540;2022-09-30T03:57:07;15.52;;;11.84;;
49800;SDS011;35698;50.232;30.540;2022-09-30T03:58:19;20.40;;;12.92;;
49800;SDS011;35698;50.232;30.540;2022-09-30T03:59:24;18.01;;;13.21;;
49800;SDS011;35698;50.232;30.540;2022-09-30T04:00:36;19.34;;;13.99;;
49800;SDS011;35698;50.232;30.540;2022-09-30T04:01:41;16.05;;;12.87;;
49800;SDS011;35698;50.232;30.540;2022-09-30T04:02:44;18.48;;;13.17;;
49800;SDS011;35698;50.232;30.540;2022-09-30T04:05:05;14.75;;;12.35;;
49800;SDS011;35698;50.232;30.540;2022-09-30T04:06:11;17.28;;;12.07;;
49800;SDS011;35698;50.232;30.540;2022-09-30T04:07:23;19.24;;;13.08;;
49800;SDS011;35698;50.232;30.540;2022-09-30T04:08:27;18.98;;;12.62;;
49800;SDS011;35698;50.232;30.540;2022-09-30T04:09:38;19.69;;;13.68;;
49800;SDS011;35698;50.232;30.540;2022-09-30T04:10:42;17.80;;;13.95;;
49800;SDS011;35698;50.232;30.540;2022-09-30T04:11:53;18.20;;;12.83;;
49800;SDS011;35698;50.232;30.540;2022-09-30T04:12:57;23.12;;;13.76;;
49800;SDS011;35698;50.232;30.540;2022-09-30T04:14:08;18.25;;;12.47;;
49800;SDS011;35698;50.232;30.540;2022-09-30T04:15:11;17.73;;;12.78;;
49800;SDS011;35698;50.232;30.540;2022-09-30T04:16:15;19.13;;;13.34;;
49800;SDS011;35698;50.232;30.540;2022-09-30T04:17:18;25.55;;;14.31;;
49800;SDS011;35698;50.232;30.540;2022-09-30T04:18:22;24.47;;;14.58;;
49800;SDS011;35698;50.232;30.540;2022-09-30T04:19:33;20.14;;;13.72;;
49800;SDS011;35698;50.232;30.540;2022-09-30T04:20:37;23.51;;;15.95;;
49800;SDS011;35698;50.232;30.540;2022-09-30T04:21:50;28.70;;;16.33;;
49800;SDS011;35698;50.232;30.540;2022-09-30T04:22:57;22.40;;;15.25;;
49800;SDS011;35698;50.232;30.540;2022-09-30T04:24:09;28.67;;;16.89;;
49800;SDS011;35698;50.232;30.540;2022-09-30T04:25:12;23.51;;;15.96;;
49800;SDS011;35698;50.232;30.540;2022-09-30T04:26:27;24.31;;;15.12;;
49800;SDS011;35698;50.232;30.540;2022-09-30T04:27:30;25.75;;;15.51;;
49800;SDS011;35698;50.232;30.540;2022-09-30T04:28:33;28.24;;;15.63;;
49800;SDS011;35698;50.232;30.540;2022-09-30T04:29:45;31.97;;;15.91;;
49800;SDS011;35698;50.232;30.540;2022-09-30T04:30:48;25.43;;;15.82;;
49800;SDS011;35698;50.232;30.540;2022-09-30T04:31:51;24.18;;;15.48;;
49800;SDS011;35698;50.232;30.540;2022-09-30T04:32:55;24.14;;;14.74;;
49800;SDS011;35698;50.232;30.540;2022-09-30T04:34:06;29.81;;;16.67;;
49800;SDS011;35698;50.232;30.540;2022-09-30T04:35:11;24.72;;;16.37;;
49800;SDS011;35698;50.232;30.540;2022-09-30T04:36:15;29.75;;;17.96;;
49800;SDS011;35698;50.232;30.540;2022-09-30T04:37:27;26.47;;;16.90;;
49800;SDS011;35698;50.232;30.540;2022-09-30T04:38:31;27.27;;;15.66;;
49800;SDS011;35698;50.232;30.540;2022-09-30T04:39:34;37.68;;;18.65;;
49800;SDS011;35698;50.232;30.540;2022-09-30T04:40:45;26.97;;;16.20;;
49800;SDS011;35698;50.232;30.540;2022-09-30T04:41:49;27.99;;;17.76;;
49800;SDS011;35698;50.232;30.540;2022-09-30T04:42:54;30.16;;;16.97;;
49800;SDS011;35698;50.232;30.540;2022-09-30T04:44:00;29.28;;;16.22;;
49800;SDS011;35698;50.232;30.540;2022-09-30T04:45:12;27.77;;;17.43;;
49800;SDS011;35698;50.232;30.540;2022-09-30T04:46:18;35.03;;;17.78;;
49800;SDS011;35698;50.232;30.540;2022-09-30T04:47:22;33.17;;;17.06;;
49800;SDS011;35698;50.232;30.540;2022-09-30T04:48:26;30.09;;;17.87;;
49800;SDS011;35698;50.232;30.540;2022-09-30T04:49:29;31.62;;;18.19;;
49800;SDS011;35698;50.232;30.540;2022-09-30T04:50:41;33.91;;;18.04;;
49800;SDS011;35698;50.232;30.540;2022-09-30T04:51:44;29.46;;;18.24;;
49800;SDS011;35698;50.232;30.540;2022-09-30T04:52:48;30.55;;;17.02;;
49800;SDS011;35698;50.232;30.540;2022-09-30T04:53:51;30.86;;;17.52;;
49800;SDS011;35698;50.232;30.540;2022-09-30T04:55:02;29.61;;;17.43;;
49800;SDS011;35698;50.232;30.540;2022-09-30T04:56:07;31.99;;;17.89;;
49800;SDS011;35698;50.232;30.540;2022-09-30T04:57:11;29.10;;;18.59;;
49800;SDS011;35698;50.232;30.540;2022-09-30T04:58:14;30.17;;;18.29;;
49800;SDS011;35698;50.232;30.540;2022-09-30T04:59:27;34.16;;;18.43;;
49800;SDS011;35698;50.232;30.540;2022-09-30T05:00:30;35.78;;;19.02;;
49800;SDS011;35698;50.232;30.540;2022-09-30T05:01:34;29.73;;;17.51;;
49800;SDS011;35698;50.232;30.540;2022-09-30T05:02:45;30.07;;;18.34;;
49800;SDS011;35698;50.232;30.540;2022-09-30T05:03:48;31.39;;;18.57;;
49800;SDS011;35698;50.232;30.540;2022-09-30T05:05:00;33.38;;;18.51;;
49800;SDS011;35698;50.232;30.540;2022-09-30T05:07:20;29.73;;;16.97;;
49800;SDS011;35698;50.232;30.540;2022-09-30T05:08:23;24.82;;;16.99;;
49800;SDS011;35698;50.232;30.540;2022-09-30T05:09:34;30.77;;;17.09;;
49800;SDS011;35698;50.232;30.540;2022-09-30T05:10:38;31.84;;;19.81;;
49800;SDS011;35698;50.232;30.540;2022-09-30T05:11:41;41.99;;;27.79;;
49800;SDS011;35698;50.232;30.540;2022-09-30T05:12:52;41.75;;;20.59;;
49800;SDS011;35698;50.232;30.540;2022-09-30T05:13:56;33.78;;;18.96;;
49800;SDS011;35698;50.232;30.540;2022-09-30T05:15:08;41.43;;;18.24;;
49800;SDS011;35698;50.232;30.540;2022-09-30T05:16:12;27.04;;;18.04;;
49800;SDS011;35698;50.232;30.540;2022-09-30T05:17:17;32.35;;;19.25;;
49800;SDS011;35698;50.232;30.540;2022-09-30T05:18:21;27.04;;;18.03;;
49800;SDS011;35698;50.232;30.540;2022-09-30T05:19:32;32.83;;;17.97;;
49800;SDS011;35698;50.232;30.540;2022-09-30T05:20:36;28.89;;;18.36;;
49800;SDS011;35698;50.232;30.540;2022-09-30T05:21:47;27.62;;;16.82;;
49800;SDS011;35698;50.232;30.540;2022-09-30T05:22:54;27.47;;;18.51;;
49800;SDS011;35698;50.232;30.540;2022-09-30T05:24:05;22.97;;;18.19;;
49800;SDS011;35698;50.232;30.540;2022-09-30T05:25:08;27.46;;;18.39;;
49800;SDS011;35698;50.232;30.540;2022-09-30T05:26:19;31.45;;;18.69;;
49800;SDS011;35698;50.232;30.540;2022-09-30T05:27:23;32.02;;;18.21;;
49800;SDS011;35698;50.232;30.540;2022-09-30T05:28:27;28.49;;;18.50;;
49800;SDS011;35698;50.232;30.540;2022-09-30T05:29:38;28.75;;;19.67;;
49800;SDS011;35698;50.232;30.540;2022-09-30T05:30:41;40.29;;;25.16;;
49800;SDS011;35698;50.232;30.540;2022-09-30T05:31:46;40.54;;;25.28;;
49800;SDS011;35698;50.232;30.540;2022-09-30T05:32:57;43.52;;;27.27;;
49800;SDS011;35698;50.232;30.540;2022-09-30T05:34:01;46.10;;;25.32;;
49800;SDS011;35698;50.232;30.540;2022-09-30T05:35:12;45.63;;;26.48;;
49800;SDS011;35698;50.232;30.540;2022-09-30T05:36:15;42.54;;;26.84;;
49800;SDS011;35698;50.232;30.540;2022-09-30T05:37:19;41.64;;;25.86;;
49800;SDS011;35698;50.232;30.540;2022-09-30T05:38:22;38.10;;;25.17;;
49800;SDS011;35698;50.232;30.540;2022-09-30T05:39:25;35.17;;;23.80;;
49800;SDS011;35698;50.232;30.540;2022-09-30T05:40:29;28.16;;;19.61;;
49800;SDS011;35698;50.232;30.540;2022-09-30T05:41:41;21.77;;;18.02;;
49800;SDS011;35698;50.232;30.540;2022-09-30T05:42:44;25.53;;;19.69;;
49800;SDS011;35698;50.232;30.540;2022-09-30T05:43:55;26.76;;;18.60;;
49800;SDS011;35698;50.232;30.540;2022-09-30T05:44:59;20.76;;;17.29;;
49800;SDS011;35698;50.232;30.540;2022-09-30T05:46:02;24.32;;;17.44;;
49800;SDS011;35698;50.232;30.540;2022-09-30T05:47:06;22.71;;;17.61;;
49800;SDS011;35698;50.232;30.540;2022-09-30T05:48:09;20.42;;;16.77;;
49800;SDS011;35698;50.232;30.540;2022-09-30T05:49:21;18.45;;;16.39;;
49800;SDS011;35698;50.232;30.540;2022-09-30T05:50:24;23.21;;;17.46;;
49800;SDS011;35698;50.232;30.540;2022-09-30T05:51:28;20.38;;;17.32;;
49800;SDS011;35698;50.232;30.540;2022-09-30T05:52:39;21.47;;;16.80;;
49800;SDS011;35698;50.232;30.540;2022-09-30T05:53:42;22.14;;;16.59;;
49800;SDS011;35698;50.232;30.540;2022-09-30T05:54:53;20.67;;;17.11;;
49800;SDS011;35698;50.232;30.540;2022-09-30T05:55:57;23.05;;;18.12;;
49800;SDS011;35698;50.232;30.540;2022-09-30T05:57:11;21.41;;;17.38;;
49800;SDS011;35698;50.232;30.540;2022-09-30T05:58:15;21.59;;;16.09;;
49800;SDS011;35698;50.232;30.540;2022-09-30T05:59:19;17.58;;;15.64;;
49800;SDS011;35698;50.232;30.540;2022-09-30T06:00:34;18.23;;;15.55;;
49800;SDS011;35698;50.232;30.540;2022-09-30T06:01:41;18.04;;;16.15;;
49800;SDS011;35698;50.232;30.540;2022-09-30T06:02:55;17.84;;;15.12;;
49800;SDS011;35698;50.232;30.540;2022-09-30T06:04:06;18.68;;;16.04;;
49800;SDS011;35698;50.232;30.540;2022-09-30T06:05:09;18.32;;;15.26;;
49800;SDS011;35698;50.232;30.540;2022-09-30T06:06:21;19.61;;;17.42;;
49800;SDS011;35698;50.232;30.540;2022-09-30T06:07:25;19.79;;;15.95;;
49800;SDS011;35698;50.232;30.540;2022-09-30T06:08:36;18.88;;;15.67;;
49800;SDS011;35698;50.232;30.540;2022-09-30T06:09:40;19.11;;;16.23;;
49800;SDS011;35698;50.232;30.540;2022-09-30T06:10:52;20.96;;;16.03;;
49800;SDS011;35698;50.232;30.540;2022-09-30T06:11:55;18.39;;;15.94;;
49800;SDS011;35698;50.232;30.540;2022-09-30T06:13:06;16.82;;;15.19;;
49800;SDS011;35698;50.232;30.540;2022-09-30T06:14:09;19.91;;;15.19;;
49800;SDS011;35698;50.232;30.540;2022-09-30T06:15:21;16.17;;;14.35;;
49800;SDS011;35698;50.232;30.540;2022-09-30T06:16:25;15.99;;;14.03;;
49800;SDS011;35698;50.232;30.540;2022-09-30T06:17:30;16.78;;;14.98;;
49800;SDS011;35698;50.232;30.540;2022-09-30T06:18:48;17.88;;;15.04;;
49800;SDS011;35698;50.232;30.540;2022-09-30T06:19:52;17.86;;;15.28;;
49800;SDS011;35698;50.232;30.540;2022-09-30T06:21:04;18.25;;;16.09;;
49800;SDS011;35698;50.232;30.540;2022-09-30T06:23:32;18.01;;;15.77;;
49800;SDS011;35698;50.232;30.540;2022-09-30T06:24:35;17.03;;;15.06;;
49800;SDS011;35698;50.232;30.540;2022-09-30T06:25:50;19.28;;;15.39;;
49800;SDS011;35698;50.232;30.540;2022-09-30T06:26:54;19.11;;;16.14;;
49800;SDS011;35698;50.232;30.540;2022-09-30T06:28:05;18.51;;;15.91;;
49800;SDS011;35698;50.232;30.540;2022-09-30T06:29:08;18.07;;;14.74;;
49800;SDS011;35698;50.232;30.540;2022-09-30T06:30:20;19.18;;;15.50;;
49800;SDS011;35698;50.232;30.540;2022-09-30T06:31:23;17.69;;;15.46;;
49800;SDS011;35698;50.232;30.540;2022-09-30T06:32:34;18.05;;;14.93;;
49800;SDS011;35698;50.232;30.540;2022-09-30T06:33:37;18.98;;;16.17;;
49800;SDS011;35698;50.232;30.540;2022-09-30T06:34:49;17.48;;;15.45;;
49800;SDS011;35698;50.232;30.540;2022-09-30T06:35:52;17.58;;;15.31;;
49800;SDS011;35698;50.232;30.540;2022-09-30T06:37:03;19.60;;;15.96;;
49800;SDS011;35698;50.232;30.540;2022-09-30T06:38:09;20.36;;;15.58;;
49800;SDS011;35698;50.232;30.540;2022-09-30T06:39:20;16.32;;;14.37;;
49800;SDS011;35698;50.232;30.540;2022-09-30T06:40:23;18.37;;;15.43;;
49800;SDS011;35698;50.232;30.540;2022-09-30T06:41:34;17.21;;;15.43;;
49800;SDS011;35698;50.232;30.540;2022-09-30T06:42:38;19.10;;;16.54;;
49800;SDS011;35698;50.232;30.540;2022-09-30T06:43:49;18.01;;;15.89;;
49800;SDS011;35698;50.232;30.540;2022-09-30T06:44:54;19.48;;;16.06;;
49800;SDS011;35698;50.232;30.540;2022-09-30T06:46:05;18.24;;;16.32;;
49800;SDS011;35698;50.232;30.540;2022-09-30T06:47:13;19.60;;;15.91;;
49800;SDS011;35698;50.232;30.540;2022-09-30T06:48:24;19.67;;;16.23;;
49800;SDS011;35698;50.232;30.540;2022-09-30T06:49:29;20.40;;;16.72;;
49800;SDS011;35698;50.232;30.540;2022-09-30T06:50:40;18.07;;;15.89;;
49800;SDS011;35698;50.232;30.540;2022-09-30T06:51:45;19.38;;;15.91;;
49800;SDS011;35698;50.232;30.540;2022-09-30T06:52:57;20.67;;;17.12;;
49800;SDS011;35698;50.232;30.540;2022-09-30T06:54:01;18.50;;;16.42;;
49800;SDS011;35698;50.232;30.540;2022-09-30T06:55:12;21.45;;;16.75;;
49800;SDS011;35698;50.232;30.540;2022-09-30T06:56:16;17.94;;;15.37;;
49800;SDS011;35698;50.232;30.540;2022-09-30T06:57:27;19.98;;;16.93;;
49800;SDS011;35698;50.232;30.540;2022-09-30T06:59:35;18.73;;;16.22;;
49800;SDS011;35698;50.232;30.540;2022-09-30T07:00:39;22.24;;;17.02;;
49800;SDS011;35698;50.232;30.540;2022-09-30T07:01:42;18.55;;;15.95;;
49800;SDS011;35698;50.232;30.540;2022-09-30T07:02:53;20.27;;;17.38;;
49800;SDS011;35698;50.232;30.540;2022-09-30T07:03:57;23.83;;;17.03;;
49800;SDS011;35698;50.232;30.540;2022-09-30T07:05:09;20.14;;;17.25;;
49800;SDS011;35698;50.232;30.540;2022-09-30T07:06:13;22.46;;;16.86;;
49800;SDS011;35698;50.232;30.540;2022-09-30T07:07:24;23.19;;;17.07;;
49800;SDS011;35698;50.232;30.540;2022-09-30T07:08:29;20.78;;;17.07;;
49800;SDS011;35698;50.232;30.540;2022-09-30T07:09:43;17.79;;;15.70;;
49800;SDS011;35698;50.232;30.540;2022-09-30T07:10:47;19.20;;;16.61;;
49800;SDS011;35698;50.232;30.540;2022-09-30T07:11:58;21.86;;;17.07;;
49800;SDS011;35698;50.232;30.540;2022-09-30T07:13:01;23.34;;;16.81;;
49800;SDS011;35698;50.232;30.540;2022-09-30T07:14:12;20.46;;;16.67;;
49800;SDS011;35698;50.232;30.540;2022-09-30T07:15:16;20.76;;;16.82;;
49800;SDS011;35698;50.232;30.540;2022-09-30T07:16:28;23.77;;;17.57;;
49800;SDS011;35698;50.232;30.540;2022-09-30T07:17:31;21.93;;;16.68;;
49800;SDS011;35698;50.232;30.540;2022-09-30T07:18:42;21.13;;;16.29;;
49800;SDS011;35698;50.232;30.540;2022-09-30T07:21:15;24.81;;;17.37;;
49800;SDS011;35698;50.232;30.540;2022-09-30T07:22:19;23.42;;;17.13;;
49800;SDS011;35698;50.232;30.540;2022-09-30T07:23:30;20.05;;;16.98;;
49800;SDS011;35698;50.232;30.540;2022-09-30T07:24:34;20.12;;;16.37;;
49800;SDS011;35698;50.232;30.540;2022-09-30T07:27:02;20.27;;;17.21;;
49800;SDS011;35698;50.232;30.540;2022-09-30T07:28:05;21.94;;;17.38;;
49800;SDS011;35698;50.232;30.540;2022-09-30T07:29:21;20.92;;;17.43;;
49800;SDS011;35698;50.232;30.540;2022-09-30T07:30:32;23.55;;;16.98;;
49800;SDS011;35698;50.232;30.540;2022-09-30T07:31:35;20.14;;;16.92;;
49800;SDS011;35698;50.232;30.540;2022-09-30T07:32:46;19.52;;;16.98;;
49800;SDS011;35698;50.232;30.540;2022-09-30T07:33:50;21.80;;;17.66;;
49800;SDS011;35698;50.232;30.540;2022-09-30T07:34:54;23.45;;;17.74;;
49800;SDS011;35698;50.232;30.540;2022-09-30T07:35:57;25.38;;;17.58;;
49800;SDS011;35698;50.232;30.540;2022-09-30T07:37:04;22.41;;;17.65;;
49800;SDS011;35698;50.232;30.540;2022-09-30T07:38:08;19.87;;;16.41;;
49800;SDS011;35698;50.232;30.540;2022-09-30T07:39:11;22.16;;;17.56;;
49800;SDS011;35698;50.232;30.540;2022-09-30T07:40:24;23.81;;;18.33;;
49800;SDS011;35698;50.232;30.540;2022-09-30T07:41:27;29.02;;;18.05;;
49800;SDS011;35698;50.232;30.540;2022-09-30T07:42:39;25.34;;;17.08;;
49800;SDS011;35698;50.232;30.540;2022-09-30T07:43:43;21.17;;;17.12;;
49800;SDS011;35698;50.232;30.540;2022-09-30T07:44:55;21.87;;;18.02;;